sensor_id;sensor_type;location;lat;lon;timestamp;temperature;humidity
9973;DHT22;5027;53.560;10.062;2023-06-22T00:01:19;22.90;99.90
9973;DHT22;5027;53.560;10.062;2023-06-22T00:03:47;23.00;99.90
9973;DHT22;5027;53.560;10.062;2023-06-22T00:06:14;22.90;99.90
9973;DHT22;5027;53.560;10.062;2023-06-22T00:08:40;23.00;99.90
9973;DHT22;5027;53.560;10.062;2023-06-22T00:11:07;22.90;99.90
9973;DHT22;5027;53.560;10.062;2023-06-22T00:13:34;22.90;99.90
9973;DHT22;5027;53.560;10.062;2023-06-22T00:16:01;22.90;99.90
9973;DHT22;5027;53.560;10.062;2023-06-22T00:18:28;22.90;99.90
9973;DHT22;5027;53.560;10.062;2023-06-22T00:20:57;22.80;99.90
9973;DHT22;5027;53.560;10.062;2023-06-22T00:23:25;22.80;99.90
9973;DHT22;5027;53.560;10.062;2023-06-22T00:25:52;22.80;99.90
9973;DHT22;5027;53.560;10.062;2023-06-22T00:28:19;22.80;99.90
9973;DHT22;5027;53.560;10.062;2023-06-22T00:30:46;22.80;99.90
9973;DHT22;5027;53.560;10.062;2023-06-22T00:33:14;22.80;99.90
9973;DHT22;5027;53.560;10.062;2023-06-22T00:35:43;22.80;99.90
9973;DHT22;5027;53.560;10.062;2023-06-22T00:38:10;22.80;99.90
9973;DHT22;5027;53.560;10.062;2023-06-22T00:40:37;22.80;99.90
9973;DHT22;5027;53.560;10.062;2023-06-22T00:43:05;22.80;99.90
9973;DHT22;5027;53.560;10.062;2023-06-22T00:45:32;22.80;99.90
9973;DHT22;5027;53.560;10.062;2023-06-22T00:47:59;22.80;99.90
9973;DHT22;5027;53.560;10.062;2023-06-22T00:50:28;22.80;99.90
9973;DHT22;5027;53.560;10.062;2023-06-22T00:53:05;22.80;99.90
9973;DHT22;5027;53.560;10.062;2023-06-22T00:55:37;22.80;99.90
9973;DHT22;5027;53.560;10.062;2023-06-22T00:58:09;22.80;99.90
9973;DHT22;5027;53.560;10.062;2023-06-22T01:00:38;22.80;99.90
9973;DHT22;5027;53.560;10.062;2023-06-22T01:03:05;22.90;99.90
9973;DHT22;5027;53.560;10.062;2023-06-22T01:05:37;22.90;99.90
9973;DHT22;5027;53.560;10.062;2023-06-22T01:08:33;22.80;99.90
9973;DHT22;5027;53.560;10.062;2023-06-22T01:11:25;22.80;99.90
9973;DHT22;5027;53.560;10.062;2023-06-22T01:14:03;22.80;99.90
9973;DHT22;5027;53.560;10.062;2023-06-22T01:16:33;22.80;99.90
9973;DHT22;5027;53.560;10.062;2023-06-22T01:21:57;22.80;99.90
9973;DHT22;5027;53.560;10.062;2023-06-22T01:24:30;22.80;99.90
9973;DHT22;5027;53.560;10.062;2023-06-22T01:27:37;22.80;99.90
9973;DHT22;5027;53.560;10.062;2023-06-22T01:30:13;22.70;99.90
9973;DHT22;5027;53.560;10.062;2023-06-22T01:32:42;22.70;99.90
9973;DHT22;5027;53.560;10.062;2023-06-22T01:35:10;22.80;99.90
9973;DHT22;5027;53.560;10.062;2023-06-22T01:37:38;22.80;99.90
9973;DHT22;5027;53.560;10.062;2023-06-22T01:40:05;22.80;99.90
9973;DHT22;5027;53.560;10.062;2023-06-22T01:42:34;22.80;99.90
9973;DHT22;5027;53.560;10.062;2023-06-22T01:45:02;22.80;99.90
9973;DHT22;5027;53.560;10.062;2023-06-22T01:47:29;22.80;99.90
9973;DHT22;5027;53.560;10.062;2023-06-22T01:49:57;22.80;99.90
9973;DHT22;5027;53.560;10.062;2023-06-22T01:52:23;22.80;99.90
9973;DHT22;5027;53.560;10.062;2023-06-22T01:54:50;22.80;99.90
9973;DHT22;5027;53.560;10.062;2023-06-22T01:57:18;22.70;99.90
9973;DHT22;5027;53.560;10.062;2023-06-22T02:00:03;22.80;99.90
9973;DHT22;5027;53.560;10.062;2023-06-22T02:05:52;22.70;99.90
9973;DHT22;5027;53.560;10.062;2023-06-22T02:08:23;22.70;99.90
9973;DHT22;5027;53.560;10.062;2023-06-22T02:10:52;22.70;99.90
9973;DHT22;5027;53.560;10.062;2023-06-22T02:13:20;22.60;99.90
9973;DHT22;5027;53.560;10.062;2023-06-22T02:15:48;22.60;99.90
9973;DHT22;5027;53.560;10.062;2023-06-22T02:18:15;22.70;99.90
9973;DHT22;5027;53.560;10.062;2023-06-22T02:20:42;22.70;99.90
9973;DHT22;5027;53.560;10.062;2023-06-22T02:23:09;22.60;99.90
9973;DHT22;5027;53.560;10.062;2023-06-22T02:25:36;22.70;99.90
9973;DHT22;5027;53.560;10.062;2023-06-22T02:28:03;22.70;99.90
9973;DHT22;5027;53.560;10.062;2023-06-22T02:30:31;22.60;99.90
9973;DHT22;5027;53.560;10.062;2023-06-22T02:32:58;22.60;99.90
9973;DHT22;5027;53.560;10.062;2023-06-22T02:35:27;22.60;99.90
9973;DHT22;5027;53.560;10.062;2023-06-22T02:37:59;22.60;99.90
9973;DHT22;5027;53.560;10.062;2023-06-22T02:40:27;22.70;99.90
9973;DHT22;5027;53.560;10.062;2023-06-22T02:42:56;22.70;99.90
9973;DHT22;5027;53.560;10.062;2023-06-22T02:45:24;22.70;99.90
9973;DHT22;5027;53.560;10.062;2023-06-22T02:47:51;22.60;99.90
9973;DHT22;5027;53.560;10.062;2023-06-22T02:54:07;22.60;99.90
9973;DHT22;5027;53.560;10.062;2023-06-22T02:56:34;22.60;99.90
9973;DHT22;5027;53.560;10.062;2023-06-22T02:59:03;22.60;99.90
9973;DHT22;5027;53.560;10.062;2023-06-22T03:01:36;22.60;99.90
9973;DHT22;5027;53.560;10.062;2023-06-22T03:04:18;22.60;99.90
9973;DHT22;5027;53.560;10.062;2023-06-22T03:06:45;22.60;99.90
9973;DHT22;5027;53.560;10.062;2023-06-22T03:09:18;22.70;99.90
9973;DHT22;5027;53.560;10.062;2023-06-22T03:11:44;22.60;99.90
9973;DHT22;5027;53.560;10.062;2023-06-22T03:14:11;22.60;99.90
9973;DHT22;5027;53.560;10.062;2023-06-22T03:16:38;22.60;99.90
9973;DHT22;5027;53.560;10.062;2023-06-22T03:19:07;22.60;99.90
9973;DHT22;5027;53.560;10.062;2023-06-22T03:21:34;22.60;99.90
9973;DHT22;5027;53.560;10.062;2023-06-22T03:24:01;22.60;99.90
9973;DHT22;5027;53.560;10.062;2023-06-22T03:26:27;22.60;99.90
9973;DHT22;5027;53.560;10.062;2023-06-22T03:28:56;22.60;99.90
9973;DHT22;5027;53.560;10.062;2023-06-22T03:31:23;22.60;99.90
9973;DHT22;5027;53.560;10.062;2023-06-22T03:33:51;22.50;99.90
9973;DHT22;5027;53.560;10.062;2023-06-22T03:36:18;22.50;99.90
9973;DHT22;5027;53.560;10.062;2023-06-22T03:38:50;22.50;99.90
9973;DHT22;5027;53.560;10.062;2023-06-22T03:41:17;22.60;99.90
9973;DHT22;5027;53.560;10.062;2023-06-22T03:43:44;22.70;99.90
9973;DHT22;5027;53.560;10.062;2023-06-22T03:46:11;22.60;99.90
9973;DHT22;5027;53.560;10.062;2023-06-22T03:48:38;22.60;99.90
9973;DHT22;5027;53.560;10.062;2023-06-22T03:51:06;22.60;99.90
9973;DHT22;5027;53.560;10.062;2023-06-22T03:53:32;22.60;99.90
9973;DHT22;5027;53.560;10.062;2023-06-22T03:55:59;22.70;99.90
9973;DHT22;5027;53.560;10.062;2023-06-22T03:58:26;22.70;99.90
9973;DHT22;5027;53.560;10.062;2023-06-22T04:00:53;22.70;99.90
9973;DHT22;5027;53.560;10.062;2023-06-22T04:03:20;22.70;99.90
9973;DHT22;5027;53.560;10.062;2023-06-22T04:05:47;22.80;99.90
9973;DHT22;5027;53.560;10.062;2023-06-22T04:08:15;22.80;99.90
9973;DHT22;5027;53.560;10.062;2023-06-22T04:10:41;22.80;99.90
9973;DHT22;5027;53.560;10.062;2023-06-22T04:13:08;22.80;99.90
9973;DHT22;5027;53.560;10.062;2023-06-22T04:15:35;22.80;99.90
9973;DHT22;5027;53.560;10.062;2023-06-22T04:18:02;22.80;99.90
9973;DHT22;5027;53.560;10.062;2023-06-22T04:20:30;22.80;99.90
9973;DHT22;5027;53.560;10.062;2023-06-22T04:22:58;22.80;99.90
9973;DHT22;5027;53.560;10.062;2023-06-22T04:25:25;22.80;99.90
9973;DHT22;5027;53.560;10.062;2023-06-22T04:27:51;22.80;99.90
9973;DHT22;5027;53.560;10.062;2023-06-22T04:30:18;22.80;99.90
9973;DHT22;5027;53.560;10.062;2023-06-22T04:32:45;22.80;99.90
9973;DHT22;5027;53.560;10.062;2023-06-22T04:35:12;22.80;99.90
9973;DHT22;5027;53.560;10.062;2023-06-22T04:37:40;22.90;99.90
9973;DHT22;5027;53.560;10.062;2023-06-22T04:40:07;23.10;99.90
9973;DHT22;5027;53.560;10.062;2023-06-22T04:42:35;23.10;99.90
9973;DHT22;5027;53.560;10.062;2023-06-22T04:45:03;23.10;99.90
9973;DHT22;5027;53.560;10.062;2023-06-22T04:47:30;23.00;99.90
9973;DHT22;5027;53.560;10.062;2023-06-22T04:49:56;22.90;99.90
9973;DHT22;5027;53.560;10.062;2023-06-22T04:52:23;22.90;99.90
9973;DHT22;5027;53.560;10.062;2023-06-22T04:54:51;22.90;99.90
9973;DHT22;5027;53.560;10.062;2023-06-22T04:57:22;22.90;99.90
9973;DHT22;5027;53.560;10.062;2023-06-22T04:59:59;22.90;99.90
9973;DHT22;5027;53.560;10.062;2023-06-22T05:02:38;22.90;99.90
9973;DHT22;5027;53.560;10.062;2023-06-22T05:05:06;22.90;99.90
9973;DHT22;5027;53.560;10.062;2023-06-22T05:07:34;23.00;99.90
9973;DHT22;5027;53.560;10.062;2023-06-22T05:10:04;23.10;99.90
9973;DHT22;5027;53.560;10.062;2023-06-22T05:12:31;23.10;99.90
9973;DHT22;5027;53.560;10.062;2023-06-22T05:14:58;23.00;99.90
9973;DHT22;5027;53.560;10.062;2023-06-22T05:17:25;23.00;99.90
9973;DHT22;5027;53.560;10.062;2023-06-22T05:19:52;22.90;99.90
9973;DHT22;5027;53.560;10.062;2023-06-22T05:22:19;23.10;99.90
9973;DHT22;5027;53.560;10.062;2023-06-22T05:24:47;23.20;99.90
9973;DHT22;5027;53.560;10.062;2023-06-22T05:27:14;23.10;99.90
9973;DHT22;5027;53.560;10.062;2023-06-22T05:29:40;23.10;99.90
9973;DHT22;5027;53.560;10.062;2023-06-22T05:32:09;23.10;99.90
9973;DHT22;5027;53.560;10.062;2023-06-22T05:34:36;23.10;99.90
9973;DHT22;5027;53.560;10.062;2023-06-22T05:37:03;23.10;99.90
9973;DHT22;5027;53.560;10.062;2023-06-22T05:39:30;23.10;99.90
9973;DHT22;5027;53.560;10.062;2023-06-22T05:41:56;23.20;99.90
9973;DHT22;5027;53.560;10.062;2023-06-22T05:44:23;23.30;99.90
9973;DHT22;5027;53.560;10.062;2023-06-22T05:46:50;23.40;99.90
9973;DHT22;5027;53.560;10.062;2023-06-22T05:49:16;23.30;99.90
9973;DHT22;5027;53.560;10.062;2023-06-22T05:51:43;23.10;99.90
9973;DHT22;5027;53.560;10.062;2023-06-22T05:54:10;23.20;99.90
9973;DHT22;5027;53.560;10.062;2023-06-22T05:56:39;23.30;99.90
9973;DHT22;5027;53.560;10.062;2023-06-22T05:59:06;23.30;99.90
9973;DHT22;5027;53.560;10.062;2023-06-22T06:01:33;23.40;99.90
9973;DHT22;5027;53.560;10.062;2023-06-22T06:04:03;23.50;99.90
9973;DHT22;5027;53.560;10.062;2023-06-22T06:06:35;23.40;99.90
9973;DHT22;5027;53.560;10.062;2023-06-22T06:09:04;23.50;99.90
9973;DHT22;5027;53.560;10.062;2023-06-22T06:11:31;23.50;99.90
9973;DHT22;5027;53.560;10.062;2023-06-22T06:13:57;23.60;99.90
9973;DHT22;5027;53.560;10.062;2023-06-22T06:16:24;23.60;99.90
9973;DHT22;5027;53.560;10.062;2023-06-22T06:18:51;23.60;99.90
9973;DHT22;5027;53.560;10.062;2023-06-22T06:21:19;23.50;99.90
9973;DHT22;5027;53.560;10.062;2023-06-22T06:23:46;23.50;99.90
9973;DHT22;5027;53.560;10.062;2023-06-22T06:26:14;23.50;99.90
9973;DHT22;5027;53.560;10.062;2023-06-22T06:28:43;23.50;99.90
9973;DHT22;5027;53.560;10.062;2023-06-22T06:31:10;23.60;99.90
9973;DHT22;5027;53.560;10.062;2023-06-22T06:33:38;23.60;99.90
9973;DHT22;5027;53.560;10.062;2023-06-22T06:36:05;23.60;99.90
9973;DHT22;5027;53.560;10.062;2023-06-22T06:38:32;23.60;99.90
9973;DHT22;5027;53.560;10.062;2023-06-22T06:40:59;23.60;99.90
9973;DHT22;5027;53.560;10.062;2023-06-22T06:43:26;23.60;99.90
9973;DHT22;5027;53.560;10.062;2023-06-22T06:45:53;23.60;99.90
9973;DHT22;5027;53.560;10.062;2023-06-22T06:48:20;23.60;99.90
9973;DHT22;5027;53.560;10.062;2023-06-22T06:50:46;23.50;99.90
9973;DHT22;5027;53.560;10.062;2023-06-22T06:53:13;23.50;99.90
9973;DHT22;5027;53.560;10.062;2023-06-22T06:55:40;23.50;99.90
9973;DHT22;5027;53.560;10.062;2023-06-22T06:58:07;23.50;99.90
9973;DHT22;5027;53.560;10.062;2023-06-22T07:00:36;23.50;99.90
9973;DHT22;5027;53.560;10.062;2023-06-22T07:03:03;23.60;99.90
9973;DHT22;5027;53.560;10.062;2023-06-22T07:05:30;23.60;99.90
9973;DHT22;5027;53.560;10.062;2023-06-22T07:07:57;23.60;99.90
9973;DHT22;5027;53.560;10.062;2023-06-22T07:10:24;23.60;99.90
9973;DHT22;5027;53.560;10.062;2023-06-22T07:12:50;23.60;99.90
9973;DHT22;5027;53.560;10.062;2023-06-22T07:15:17;23.60;99.90
9973;DHT22;5027;53.560;10.062;2023-06-22T07:17:44;23.50;99.90
9973;DHT22;5027;53.560;10.062;2023-06-22T07:20:11;23.50;99.90
9973;DHT22;5027;53.560;10.062;2023-06-22T07:22:40;23.60;99.90
9973;DHT22;5027;53.560;10.062;2023-06-22T07:25:08;23.60;99.90
9973;DHT22;5027;53.560;10.062;2023-06-22T07:28:01;23.60;99.90
9973;DHT22;5027;53.560;10.062;2023-06-22T07:30:29;23.60;99.90
9973;DHT22;5027;53.560;10.062;2023-06-22T07:32:57;23.50;99.90
9973;DHT22;5027;53.560;10.062;2023-06-22T07:35:24;23.50;99.90
9973;DHT22;5027;53.560;10.062;2023-06-22T07:37:51;23.50;99.90
9973;DHT22;5027;53.560;10.062;2023-06-22T07:40:18;23.40;99.90
9973;DHT22;5027;53.560;10.062;2023-06-22T07:42:45;23.40;99.90
9973;DHT22;5027;53.560;10.062;2023-06-22T07:45:14;23.40;99.90
9973;DHT22;5027;53.560;10.062;2023-06-22T07:47:41;23.50;99.90
9973;DHT22;5027;53.560;10.062;2023-06-22T07:50:08;23.50;99.90
9973;DHT22;5027;53.560;10.062;2023-06-22T07:52:35;23.50;99.90
9973;DHT22;5027;53.560;10.062;2023-06-22T07:55:02;23.50;99.90
9973;DHT22;5027;53.560;10.062;2023-06-22T07:57:29;23.50;99.90
9973;DHT22;5027;53.560;10.062;2023-06-22T08:00:01;23.50;99.90
9973;DHT22;5027;53.560;10.062;2023-06-22T08:02:38;23.60;99.90
9973;DHT22;5027;53.560;10.062;2023-06-22T08:05:05;23.60;99.90
9973;DHT22;5027;53.560;10.062;2023-06-22T08:07:46;23.60;99.90
9973;DHT22;5027;53.560;10.062;2023-06-22T08:10:14;23.60;99.90
9973;DHT22;5027;53.560;10.062;2023-06-22T08:12:41;23.60;99.90
9973;DHT22;5027;53.560;10.062;2023-06-22T08:15:08;23.60;99.90
9973;DHT22;5027;53.560;10.062;2023-06-22T08:17:39;23.60;99.90
9973;DHT22;5027;53.560;10.062;2023-06-22T08:20:07;23.60;99.90
9973;DHT22;5027;53.560;10.062;2023-06-22T08:22:39;23.50;99.90
9973;DHT22;5027;53.560;10.062;2023-06-22T08:25:06;23.50;99.90
9973;DHT22;5027;53.560;10.062;2023-06-22T08:27:33;23.60;99.90
9973;DHT22;5027;53.560;10.062;2023-06-22T08:30:01;23.60;99.90
9973;DHT22;5027;53.560;10.062;2023-06-22T08:32:28;23.60;99.90
9973;DHT22;5027;53.560;10.062;2023-06-22T08:34:56;23.60;99.90
9973;DHT22;5027;53.560;10.062;2023-06-22T08:37:23;23.60;99.90
9973;DHT22;5027;53.560;10.062;2023-06-22T08:40:00;23.60;99.90
9973;DHT22;5027;53.560;10.062;2023-06-22T08:42:31;23.60;99.90
9973;DHT22;5027;53.560;10.062;2023-06-22T08:44:58;23.70;99.90
9973;DHT22;5027;53.560;10.062;2023-06-22T08:47:27;23.70;99.90
9973;DHT22;5027;53.560;10.062;2023-06-22T08:49:54;23.60;99.90
9973;DHT22;5027;53.560;10.062;2023-06-22T08:52:21;23.60;99.90
9973;DHT22;5027;53.560;10.062;2023-06-22T08:54:50;23.70;99.90
9973;DHT22;5027;53.560;10.062;2023-06-22T08:57:17;23.70;99.90
9973;DHT22;5027;53.560;10.062;2023-06-22T08:59:43;23.70;99.90
9973;DHT22;5027;53.560;10.062;2023-06-22T09:02:10;23.70;99.90
9973;DHT22;5027;53.560;10.062;2023-06-22T09:04:37;23.70;99.90
9973;DHT22;5027;53.560;10.062;2023-06-22T09:07:04;23.70;99.90
9973;DHT22;5027;53.560;10.062;2023-06-22T09:09:31;23.70;99.90
9973;DHT22;5027;53.560;10.062;2023-06-22T09:11:58;23.70;99.90
9973;DHT22;5027;53.560;10.062;2023-06-22T09:14:25;23.70;99.90
9973;DHT22;5027;53.560;10.062;2023-06-22T09:16:51;23.70;99.90
9973;DHT22;5027;53.560;10.062;2023-06-22T09:19:18;23.70;99.90
9973;DHT22;5027;53.560;10.062;2023-06-22T09:21:45;23.70;99.90
9973;DHT22;5027;53.560;10.062;2023-06-22T09:24:11;23.70;99.90
9973;DHT22;5027;53.560;10.062;2023-06-22T09:26:38;23.70;99.90
9973;DHT22;5027;53.560;10.062;2023-06-22T09:29:05;23.70;99.90
9973;DHT22;5027;53.560;10.062;2023-06-22T09:31:32;23.80;99.90
9973;DHT22;5027;53.560;10.062;2023-06-22T09:33:59;23.80;99.90
9973;DHT22;5027;53.560;10.062;2023-06-22T09:36:26;23.80;99.90
9973;DHT22;5027;53.560;10.062;2023-06-22T09:38:53;23.80;99.90
9973;DHT22;5027;53.560;10.062;2023-06-22T09:41:25;23.80;99.90
9973;DHT22;5027;53.560;10.062;2023-06-22T09:43:51;23.80;99.90
9973;DHT22;5027;53.560;10.062;2023-06-22T09:46:22;23.80;99.90
9973;DHT22;5027;53.560;10.062;2023-06-22T09:48:51;23.70;99.90
9973;DHT22;5027;53.560;10.062;2023-06-22T09:51:18;23.70;99.90
9973;DHT22;5027;53.560;10.062;2023-06-22T09:53:46;23.80;99.90
9973;DHT22;5027;53.560;10.062;2023-06-22T09:56:13;23.80;99.90
9973;DHT22;5027;53.560;10.062;2023-06-22T09:58:46;23.70;99.90
9973;DHT22;5027;53.560;10.062;2023-06-22T10:01:13;23.70;99.90
9973;DHT22;5027;53.560;10.062;2023-06-22T10:03:43;23.70;99.90
9973;DHT22;5027;53.560;10.062;2023-06-22T10:06:10;23.70;99.90
9973;DHT22;5027;53.560;10.062;2023-06-22T10:08:37;23.70;99.90
9973;DHT22;5027;53.560;10.062;2023-06-22T10:11:04;23.70;99.90
9973;DHT22;5027;53.560;10.062;2023-06-22T10:13:31;23.70;99.90
9973;DHT22;5027;53.560;10.062;2023-06-22T10:15:58;23.60;99.90
9973;DHT22;5027;53.560;10.062;2023-06-22T10:18:25;23.70;99.90
9973;DHT22;5027;53.560;10.062;2023-06-22T10:20:51;23.70;99.90
9973;DHT22;5027;53.560;10.062;2023-06-22T10:23:19;23.80;99.90
9973;DHT22;5027;53.560;10.062;2023-06-22T10:25:46;23.90;99.90
9973;DHT22;5027;53.560;10.062;2023-06-22T10:28:13;23.90;99.90
9973;DHT22;5027;53.560;10.062;2023-06-22T10:30:41;23.90;99.90
9973;DHT22;5027;53.560;10.062;2023-06-22T10:33:08;23.80;99.90
9973;DHT22;5027;53.560;10.062;2023-06-22T10:35:36;23.80;99.90
9973;DHT22;5027;53.560;10.062;2023-06-22T10:38:04;23.80;99.90
9973;DHT22;5027;53.560;10.062;2023-06-22T10:40:31;23.90;99.90
9973;DHT22;5027;53.560;10.062;2023-06-22T10:42:58;23.90;99.90
9973;DHT22;5027;53.560;10.062;2023-06-22T10:45:25;23.80;99.90
9973;DHT22;5027;53.560;10.062;2023-06-22T10:47:51;23.80;99.90
9973;DHT22;5027;53.560;10.062;2023-06-22T10:50:18;23.70;99.90
9973;DHT22;5027;53.560;10.062;2023-06-22T10:52:46;23.70;99.90
9973;DHT22;5027;53.560;10.062;2023-06-22T10:55:13;23.70;99.90
9973;DHT22;5027;53.560;10.062;2023-06-22T10:57:40;23.60;99.90
9973;DHT22;5027;53.560;10.062;2023-06-22T11:00:11;23.70;99.90
9973;DHT22;5027;53.560;10.062;2023-06-22T11:02:38;23.70;99.90
9973;DHT22;5027;53.560;10.062;2023-06-22T11:05:05;23.60;99.90
9973;DHT22;5027;53.560;10.062;2023-06-22T11:07:33;23.60;99.90
9973;DHT22;5027;53.560;10.062;2023-06-22T11:10:00;23.60;99.90
9973;DHT22;5027;53.560;10.062;2023-06-22T11:12:26;23.70;99.90
9973;DHT22;5027;53.560;10.062;2023-06-22T11:14:53;23.60;99.90
9973;DHT22;5027;53.560;10.062;2023-06-22T11:17:21;23.60;99.90
9973;DHT22;5027;53.560;10.062;2023-06-22T11:19:48;23.60;99.90
9973;DHT22;5027;53.560;10.062;2023-06-22T11:22:15;23.60;99.90
9973;DHT22;5027;53.560;10.062;2023-06-22T11:24:42;23.60;99.90
9973;DHT22;5027;53.560;10.062;2023-06-22T11:27:08;23.60;99.90
9973;DHT22;5027;53.560;10.062;2023-06-22T11:29:35;23.60;99.90
9973;DHT22;5027;53.560;10.062;2023-06-22T11:32:05;23.60;99.90
9973;DHT22;5027;53.560;10.062;2023-06-22T11:34:33;23.60;99.90
9973;DHT22;5027;53.560;10.062;2023-06-22T11:37:00;23.60;99.90
9973;DHT22;5027;53.560;10.062;2023-06-22T11:39:26;23.60;99.90
9973;DHT22;5027;53.560;10.062;2023-06-22T11:42:11;23.60;99.90
9973;DHT22;5027;53.560;10.062;2023-06-22T11:44:38;23.70;99.90
9973;DHT22;5027;53.560;10.062;2023-06-22T11:47:05;23.70;99.90
9973;DHT22;5027;53.560;10.062;2023-06-22T11:49:32;23.70;99.90
9973;DHT22;5027;53.560;10.062;2023-06-22T11:51:58;23.70;99.90
9973;DHT22;5027;53.560;10.062;2023-06-22T11:54:25;23.60;99.90
9973;DHT22;5027;53.560;10.062;2023-06-22T11:56:52;23.70;99.90
9973;DHT22;5027;53.560;10.062;2023-06-22T11:59:18;23.80;99.90
9973;DHT22;5027;53.560;10.062;2023-06-22T12:01:46;24.00;99.90
9973;DHT22;5027;53.560;10.062;2023-06-22T12:04:14;24.00;99.90
9973;DHT22;5027;53.560;10.062;2023-06-22T12:06:41;23.90;99.90
9973;DHT22;5027;53.560;10.062;2023-06-22T12:09:10;23.80;99.90
9973;DHT22;5027;53.560;10.062;2023-06-22T12:11:36;23.80;99.90
9973;DHT22;5027;53.560;10.062;2023-06-22T12:14:03;23.90;99.90
9973;DHT22;5027;53.560;10.062;2023-06-22T12:16:31;23.90;99.90
9973;DHT22;5027;53.560;10.062;2023-06-22T12:18:57;23.90;99.90
9973;DHT22;5027;53.560;10.062;2023-06-22T12:21:24;24.00;99.90
9973;DHT22;5027;53.560;10.062;2023-06-22T12:23:51;24.00;99.90
9973;DHT22;5027;53.560;10.062;2023-06-22T12:26:17;23.80;99.90
9973;DHT22;5027;53.560;10.062;2023-06-22T12:28:44;23.80;99.90
9973;DHT22;5027;53.560;10.062;2023-06-22T12:31:11;23.90;99.90
9973;DHT22;5027;53.560;10.062;2023-06-22T12:33:38;23.80;99.90
9973;DHT22;5027;53.560;10.062;2023-06-22T12:36:04;23.80;99.90
9973;DHT22;5027;53.560;10.062;2023-06-22T12:38:31;23.80;99.90
9973;DHT22;5027;53.560;10.062;2023-06-22T12:40:58;23.80;99.90
9973;DHT22;5027;53.560;10.062;2023-06-22T12:43:25;23.80;99.90
9973;DHT22;5027;53.560;10.062;2023-06-22T12:45:52;23.80;99.90
9973;DHT22;5027;53.560;10.062;2023-06-22T12:48:21;23.70;99.90
9973;DHT22;5027;53.560;10.062;2023-06-22T12:50:47;23.80;99.90
9973;DHT22;5027;53.560;10.062;2023-06-22T12:53:14;23.70;99.90
9973;DHT22;5027;53.560;10.062;2023-06-22T12:55:41;23.70;99.90
9973;DHT22;5027;53.560;10.062;2023-06-22T12:58:08;23.70;99.90
9973;DHT22;5027;53.560;10.062;2023-06-22T13:00:34;23.80;99.90
9973;DHT22;5027;53.560;10.062;2023-06-22T13:03:01;23.80;99.90
9973;DHT22;5027;53.560;10.062;2023-06-22T13:05:28;23.80;99.90
9973;DHT22;5027;53.560;10.062;2023-06-22T13:07:55;23.80;99.90
9973;DHT22;5027;53.560;10.062;2023-06-22T13:10:21;23.80;99.90
9973;DHT22;5027;53.560;10.062;2023-06-22T13:12:48;23.80;99.90
9973;DHT22;5027;53.560;10.062;2023-06-22T13:15:15;23.80;99.90
9973;DHT22;5027;53.560;10.062;2023-06-22T13:17:41;23.90;99.90
9973;DHT22;5027;53.560;10.062;2023-06-22T13:20:09;24.00;99.90
9973;DHT22;5027;53.560;10.062;2023-06-22T13:22:36;24.00;99.90
9973;DHT22;5027;53.560;10.062;2023-06-22T13:25:10;24.20;99.90
9973;DHT22;5027;53.560;10.062;2023-06-22T13:27:40;24.10;99.90
9973;DHT22;5027;53.560;10.062;2023-06-22T13:30:08;24.00;99.90
9973;DHT22;5027;53.560;10.062;2023-06-22T13:32:39;24.00;99.90
9973;DHT22;5027;53.560;10.062;2023-06-22T13:35:09;24.10;99.90
9973;DHT22;5027;53.560;10.062;2023-06-22T13:37:36;24.00;99.90
9973;DHT22;5027;53.560;10.062;2023-06-22T13:40:05;24.10;99.90
9973;DHT22;5027;53.560;10.062;2023-06-22T13:42:33;24.00;99.90
9973;DHT22;5027;53.560;10.062;2023-06-22T13:44:59;23.90;99.90
9973;DHT22;5027;53.560;10.062;2023-06-22T13:47:26;23.80;99.90
9973;DHT22;5027;53.560;10.062;2023-06-22T13:49:56;23.80;99.90
9973;DHT22;5027;53.560;10.062;2023-06-22T13:52:24;23.80;99.90
9973;DHT22;5027;53.560;10.062;2023-06-22T13:54:51;23.90;99.90
9973;DHT22;5027;53.560;10.062;2023-06-22T13:57:18;23.80;99.90
9973;DHT22;5027;53.560;10.062;2023-06-22T13:59:44;23.80;99.90
9973;DHT22;5027;53.560;10.062;2023-06-22T14:02:11;24.00;99.90
9973;DHT22;5027;53.560;10.062;2023-06-22T14:04:38;24.00;99.90
9973;DHT22;5027;53.560;10.062;2023-06-22T14:07:05;24.20;99.90
9973;DHT22;5027;53.560;10.062;2023-06-22T14:09:31;24.20;99.90
9973;DHT22;5027;53.560;10.062;2023-06-22T14:12:03;24.10;99.90
9973;DHT22;5027;53.560;10.062;2023-06-22T14:14:30;24.00;99.90
9973;DHT22;5027;53.560;10.062;2023-06-22T14:16:57;24.00;99.90
9973;DHT22;5027;53.560;10.062;2023-06-22T14:19:24;24.00;99.90
9973;DHT22;5027;53.560;10.062;2023-06-22T14:21:51;23.90;99.90
9973;DHT22;5027;53.560;10.062;2023-06-22T14:24:18;24.00;99.90
9973;DHT22;5027;53.560;10.062;2023-06-22T14:26:47;24.10;99.90
9973;DHT22;5027;53.560;10.062;2023-06-22T14:29:13;24.00;99.90
9973;DHT22;5027;53.560;10.062;2023-06-22T14:31:44;24.00;99.90
9973;DHT22;5027;53.560;10.062;2023-06-22T14:34:11;24.00;99.90
9973;DHT22;5027;53.560;10.062;2023-06-22T14:36:38;24.00;99.90
9973;DHT22;5027;53.560;10.062;2023-06-22T14:39:04;23.90;99.90
9973;DHT22;5027;53.560;10.062;2023-06-22T14:41:31;23.90;99.90
9973;DHT22;5027;53.560;10.062;2023-06-22T14:43:58;24.00;99.90
9973;DHT22;5027;53.560;10.062;2023-06-22T14:46:24;24.00;99.90
9973;DHT22;5027;53.560;10.062;2023-06-22T14:48:51;24.00;99.90
9973;DHT22;5027;53.560;10.062;2023-06-22T14:51:18;24.00;99.90
9973;DHT22;5027;53.560;10.062;2023-06-22T14:53:45;24.00;99.90
9973;DHT22;5027;53.560;10.062;2023-06-22T14:56:13;23.90;99.90
9973;DHT22;5027;53.560;10.062;2023-06-22T14:58:41;23.90;99.90
9973;DHT22;5027;53.560;10.062;2023-06-22T15:01:13;23.90;99.90
9973;DHT22;5027;53.560;10.062;2023-06-22T15:03:40;23.80;99.90
9973;DHT22;5027;53.560;10.062;2023-06-22T15:06:08;23.90;99.90
9973;DHT22;5027;53.560;10.062;2023-06-22T15:08:39;23.90;99.90
9973;DHT22;5027;53.560;10.062;2023-06-22T15:11:06;23.90;99.90
9973;DHT22;5027;53.560;10.062;2023-06-22T15:13:34;23.90;99.90
9973;DHT22;5027;53.560;10.062;2023-06-22T15:16:02;23.90;99.90
9973;DHT22;5027;53.560;10.062;2023-06-22T15:18:32;23.90;99.90
9973;DHT22;5027;53.560;10.062;2023-06-22T15:21:02;23.90;99.90
9973;DHT22;5027;53.560;10.062;2023-06-22T15:23:30;23.90;99.90
9973;DHT22;5027;53.560;10.062;2023-06-22T15:25:57;23.90;99.90
9973;DHT22;5027;53.560;10.062;2023-06-22T15:28:25;23.90;99.90
9973;DHT22;5027;53.560;10.062;2023-06-22T15:30:52;23.90;99.90
9973;DHT22;5027;53.560;10.062;2023-06-22T15:33:19;23.90;99.90
9973;DHT22;5027;53.560;10.062;2023-06-22T15:35:46;23.90;99.90
9973;DHT22;5027;53.560;10.062;2023-06-22T15:38:12;23.90;99.90
9973;DHT22;5027;53.560;10.062;2023-06-22T15:40:39;23.90;99.90
9973;DHT22;5027;53.560;10.062;2023-06-22T15:43:11;23.90;99.90
9973;DHT22;5027;53.560;10.062;2023-06-22T15:45:39;23.90;99.90
9973;DHT22;5027;53.560;10.062;2023-06-22T15:48:06;24.00;99.90
9973;DHT22;5027;53.560;10.062;2023-06-22T15:50:33;23.90;99.90
9973;DHT22;5027;53.560;10.062;2023-06-22T15:53:00;23.90;99.90
9973;DHT22;5027;53.560;10.062;2023-06-22T15:55:27;23.90;99.90
9973;DHT22;5027;53.560;10.062;2023-06-22T15:57:54;23.90;99.90
9973;DHT22;5027;53.560;10.062;2023-06-22T16:00:21;23.90;99.90